Time;durP1;ratioP1;P1;durP2;ratioP2;P2;SDS_P1;SDS_P2;PMS_P1;PMS_P2;Temp;Humidity;BMP_temperature;BMP_pressure;BME280_temperature;BME280_humidity;BME280_pressure;Samples;Min_cycle;Max_cycle;Signal;HPM_P1;HPM_P2
2023/03/23 00:01:00;;;;;;;4.20;2.20;;;15.00;57.70;;;;;;5038929;28;20467;-75
2023/03/23 00:03:28;;;;;;;4.90;2.40;;;15.00;58.00;;;;;;5023116;28;20479;-77
2023/03/23 00:05:59;;;;;;;3.57;2.77;;;15.00;58.50;;;;;;5017651;28;20503;-76
2023/03/23 00:08:25;;;;;;;4.53;2.60;;;14.90;58.80;;;;;;5020908;28;21049;-78
2023/03/23 00:10:57;;;;;;;4.30;2.23;;;14.80;59.30;;;;;;5021321;28;20524;-76
2023/03/23 00:13:27;;;;;;;4.87;2.60;;;14.60;59.90;;;;;;5022759;28;20430;-77
2023/03/23 00:15:52;;;;;;;4.27;2.70;;;14.60;60.30;;;;;;5028338;28;20522;-77
2023/03/23 00:18:21;;;;;;;2.90;2.07;;;14.50;60.60;;;;;;5017563;28;20433;-77
2023/03/23 00:20:52;;;;;;;4.47;2.57;;;14.50;60.30;;;;;;5019441;28;20881;-77
2023/03/23 00:23:19;;;;;;;5.30;2.33;;;14.50;60.60;;;;;;5020079;28;20487;-78
2023/03/23 00:25:46;;;;;;;4.57;2.00;;;14.50;60.60;;;;;;5021400;28;20428;-77
2023/03/23 00:28:12;;;;;;;2.43;1.73;;;14.50;59.90;;;;;;5019660;28;20430;-78
2023/03/23 00:30:38;;;;;;;2.70;1.87;;;14.60;59.50;;;;;;5021992;28;20474;-75
2023/03/23 00:33:04;;;;;;;6.33;1.93;;;14.60;59.10;;;;;;5027084;28;20204;-76
2023/03/23 00:35:30;;;;;;;3.40;2.00;;;14.70;58.90;;;;;;5031639;28;20422;-77
2023/03/23 00:37:58;;;;;;;2.77;1.80;;;14.80;58.70;;;;;;5024928;28;20434;-78
2023/03/23 00:40:24;;;;;;;4.73;2.00;;;14.90;58.50;;;;;;5026025;28;20704;-77
2023/03/23 00:42:50;;;;;;;3.80;1.90;;;14.90;58.40;;;;;;5019171;28;20468;-77
2023/03/23 00:45:16;;;;;;;3.63;2.20;;;14.80;58.50;;;;;;5026430;28;20191;-77
2023/03/23 00:47:46;;;;;;;2.23;1.90;;;14.90;58.40;;;;;;5024615;28;20905;-78
2023/03/23 00:50:13;;;;;;;2.03;1.60;;;14.90;58.10;;;;;;5025367;28;20416;-75
2023/03/23 00:52:40;;;;;;;3.70;2.20;;;14.90;58.10;;;;;;5030590;28;20448;-76
2023/03/23 00:55:07;;;;;;;3.43;1.93;;;14.90;58.40;;;;;;5027171;28;20438;-75
2023/03/23 00:57:32;;;;;;;4.30;2.00;;;14.90;58.10;;;;;;5021661;28;20662;-79
2023/03/23 00:59:58;;;;;;;5.33;2.27;;;14.90;58.10;;;;;;5021050;28;20428;-76
2023/03/23 01:02:26;;;;;;;2.20;1.83;;;15.00;58.20;;;;;;5026246;28;20620;-76
2023/03/23 01:04:52;;;;;;;3.90;2.03;;;15.00;58.10;;;;;;5023876;28;20183;-78
2023/03/23 01:07:23;;;;;;;2.70;2.10;;;15.00;58.00;;;;;;5024358;28;20924;-75
2023/03/23 01:09:49;;;;;;;2.63;1.77;;;15.00;58.00;;;;;;5022329;28;20673;-76
2023/03/23 01:12:15;;;;;;;3.97;2.10;;;15.00;57.80;;;;;;5024357;28;20468;-77
2023/03/23 01:14:41;;;;;;;2.77;1.90;;;15.00;57.70;;;;;;5023863;28;20788;-76
2023/03/23 01:17:07;;;;;;;3.43;2.03;;;15.00;57.60;;;;;;5026047;28;20269;-77
2023/03/23 01:19:32;;;;;;;5.33;2.20;;;15.00;57.70;;;;;;5025419;28;20440;-75
2023/03/23 01:21:58;;;;;;;4.70;2.40;;;14.90;57.80;;;;;;5049328;28;20490;-76
2023/03/23 01:24:24;;;;;;;4.90;2.10;;;14.90;57.80;;;;;;5049375;28;20227;-77
2023/03/23 01:26:49;;;;;;;2.83;1.97;;;14.90;57.80;;;;;;5042042;28;20196;-74
2023/03/23 01:29:15;;;;;;;3.33;2.20;;;14.80;58.10;;;;;;5049591;28;20188;-76
2023/03/23 01:31:42;;;;;;;4.30;2.33;;;14.90;57.80;;;;;;5038796;28;20267;-76
2023/03/23 01:34:10;;;;;;;4.47;2.57;;;14.90;57.40;;;;;;5039500;28;20190;-75
2023/03/23 01:36:36;;;;;;;3.27;2.17;;;14.90;57.20;;;;;;5043042;28;20422;-76
2023/03/23 01:39:03;;;;;;;2.80;1.90;;;15.00;57.30;;;;;;5033129;28;20447;-76
2023/03/23 01:41:30;;;;;;;3.67;2.30;;;15.00;57.40;;;;;;5028999;28;20464;-76
2023/03/23 01:44:05;;;;;;;3.23;2.67;;;14.90;57.60;;;;;;5029023;28;20464;-75
2023/03/23 01:46:32;;;;;;;2.90;2.17;;;15.00;57.70;;;;;;5031716;28;20431;-75
2023/03/23 01:49:05;;;;;;;5.23;3.17;;;14.90;57.80;;;;;;5040233;28;20496;-77
2023/03/23 01:51:33;;;;;;;3.13;2.30;;;14.80;58.10;;;;;;5040515;28;20487;-76
2023/03/23 01:54:02;;;;;;;2.53;2.00;;;14.70;58.40;;;;;;5028038;28;20425;-77
2023/03/23 01:56:37;;;;;;;4.70;2.60;;;14.70;58.50;;;;;;5028555;28;20421;-77
2023/03/23 01:59:03;;;;;;;3.90;2.80;;;14.60;58.90;;;;;;5025151;28;20441;-77
2023/03/23 02:01:29;;;;;;;4.23;2.27;;;14.50;58.90;;;;;;5022817;28;20466;-76
2023/03/23 02:03:57;;;;;;;2.67;2.33;;;14.50;59.10;;;;;;5024681;28;21023;-77
2023/03/23 02:06:24;;;;;;;4.90;2.87;;;14.60;58.90;;;;;;5025775;28;20288;-77
2023/03/23 02:08:51;;;;;;;3.67;2.10;;;14.60;58.90;;;;;;5022484;28;20425;-74
2023/03/23 02:11:19;;;;;;;3.30;2.10;;;14.50;59.20;;;;;;5028932;28;20453;-77
2023/03/23 02:13:46;;;;;;;4.63;2.30;;;14.50;59.30;;;;;;5024264;28;20523;-77
2023/03/23 02:16:22;;;;;;;4.80;2.70;;;14.50;59.30;;;;;;5020020;28;20447;-76
2023/03/23 02:19:24;;;;;;;6.73;2.53;;;14.40;59.50;;;;;;5028728;28;20413;-75
2023/03/23 02:22:06;;;;;;;4.00;2.10;;;14.40;59.70;;;;;;5018731;28;20465;-76
2023/03/23 02:24:56;;;;;;;7.20;2.73;;;14.40;59.70;;;;;;5020107;28;20766;-74
2023/03/23 02:28:02;;;;;;;3.53;2.40;;;14.40;59.60;;;;;;5020531;28;20413;-75
2023/03/23 02:31:05;;;;;;;4.07;2.47;;;14.30;60.00;;;;;;5036343;28;20465;-76
2023/03/23 02:33:42;;;;;;;4.20;2.20;;;14.20;60.40;;;;;;5034301;28;20412;-74
2023/03/23 02:36:55;;;;;;;3.17;2.33;;;14.30;60.60;;;;;;5034974;28;20404;-77
2023/03/23 02:39:33;;;;;;;2.23;1.97;;;14.30;60.60;;;;;;5024292;28;20935;-75
2023/03/23 02:42:05;;;;;;;3.80;2.63;;;14.40;60.70;;;;;;5036003;28;20465;-76
2023/03/23 02:44:32;;;;;;;3.00;2.40;;;14.40;60.90;;;;;;5027042;28;20449;-74
2023/03/23 02:47:00;;;;;;;5.50;2.80;;;14.40;61.00;;;;;;5042269;28;20430;-78
2023/03/23 02:49:30;;;;;;;4.07;2.30;;;14.40;60.90;;;;;;5042035;28;20434;-75
2023/03/23 02:51:58;;;;;;;4.30;2.43;;;14.40;61.00;;;;;;5032614;28;20454;-75
2023/03/23 02:54:25;;;;;;;3.87;2.33;;;14.40;61.20;;;;;;5033134;28;20446;-75
2023/03/23 02:56:54;;;;;;;4.47;2.80;;;14.40;61.20;;;;;;5034183;28;20440;-75
2023/03/23 02:59:20;;;;;;;3.50;2.53;;;14.40;61.20;;;;;;5035624;28;20495;-74
2023/03/23 03:01:55;;;;;;;4.70;2.40;;;14.40;61.50;;;;;;5029377;28;20572;-75
2023/03/23 03:04:24;;;;;;;4.20;2.47;;;14.40;61.20;;;;;;5035369;28;20264;-74
2023/03/23 03:07:18;;;;;;;2.80;2.33;;;14.40;61.50;;;;;;5038874;28;20436;-74
2023/03/23 03:10:01;;;;;;;3.70;2.40;;;14.50;61.00;;;;;;5025230;28;20523;-75
2023/03/23 03:12:49;;;;;;;5.60;2.63;;;14.50;61.70;;;;;;5028711;28;20978;-76
2023/03/23 03:15:31;;;;;;;4.70;2.47;;;14.40;61.90;;;;;;5027156;28;20567;-74
2023/03/23 03:18:16;;;;;;;3.53;2.10;;;14.50;62.00;;;;;;5026300;28;20409;-75
2023/03/23 03:20:48;;;;;;;7.23;3.10;;;14.50;61.50;;;;;;5030769;28;20963;-76
2023/03/23 03:23:15;;;;;;;2.83;2.10;;;14.40;61.60;;;;;;5030794;28;20563;-75
2023/03/23 03:25:47;;;;;;;3.23;2.33;;;14.50;61.60;;;;;;5034226;28;20937;-76
2023/03/23 03:28:21;;;;;;;3.60;2.57;;;14.40;61.70;;;;;;5033624;28;20432;-75
2023/03/23 03:30:51;;;;;;;2.63;2.17;;;14.40;62.00;;;;;;5018082;28;20458;-74
2023/03/23 03:33:20;;;;;;;4.40;2.77;;;14.30;62.20;;;;;;5033957;28;20511;-76
2023/03/23 03:35:46;;;;;;;4.40;2.70;;;14.30;62.30;;;;;;5034846;28;20513;-75
2023/03/23 03:38:12;;;;;;;2.73;2.07;;;14.20;62.50;;;;;;5023390;28;20463;-77
2023/03/23 03:40:38;;;;;;;4.00;2.60;;;14.20;62.90;;;;;;5026654;28;20477;-76
2023/03/23 03:43:05;;;;;;;3.90;2.80;;;14.20;62.80;;;;;;5026884;28;20214;-75
2023/03/23 03:45:31;;;;;;;3.90;2.30;;;14.20;62.80;;;;;;5035196;28;20201;-75
2023/03/23 03:47:57;;;;;;;4.10;2.53;;;14.20;62.90;;;;;;5038006;28;20814;-75
2023/03/23 03:50:23;;;;;;;3.97;2.13;;;14.20;62.90;;;;;;5029008;28;20405;-75
2023/03/23 03:52:49;;;;;;;4.77;2.67;;;14.20;62.90;;;;;;5025034;28;20995;-75
2023/03/23 03:55:16;;;;;;;4.53;2.70;;;14.20;62.90;;;;;;5030766;28;20416;-76
2023/03/23 03:57:42;;;;;;;4.87;2.20;;;14.20;62.90;;;;;;5031558;28;20277;-76
2023/03/23 04:00:14;;;;;;;4.50;2.70;;;14.20;62.90;;;;;;5041386;28;20516;-76
2023/03/23 04:02:53;;;;;;;3.77;2.60;;;14.20;63.10;;;;;;5029289;28;20199;-75
2023/03/23 04:05:24;;;;;;;4.47;2.70;;;14.20;63.20;;;;;;5032820;28;20414;-75
2023/03/23 04:07:51;;;;;;;4.00;2.20;;;14.30;62.90;;;;;;5036713;28;20412;-75
2023/03/23 04:10:19;;;;;;;4.90;2.30;;;14.40;62.80;;;;;;5035530;28;20420;-76
2023/03/23 04:12:45;;;;;;;2.90;2.20;;;14.30;62.80;;;;;;5042328;28;21079;-75
2023/03/23 04:15:10;;;;;;;3.70;2.40;;;14.30;62.90;;;;;;5036065;28;20849;-75
2023/03/23 04:17:36;;;;;;;3.27;2.40;;;14.30;63.10;;;;;;5029545;28;20419;-77
2023/03/23 04:20:12;;;;;;;5.67;2.30;;;14.40;63.20;;;;;;5038935;28;20178;-75
2023/03/23 04:22:38;;;;;;;4.33;2.30;;;14.40;63.10;;;;;;5043153;28;20182;-76
2023/03/23 04:25:06;;;;;;;2.70;2.23;;;14.20;63.20;;;;;;5043179;28;20803;-77
2023/03/23 04:27:32;;;;;;;2.67;1.97;;;14.20;63.40;;;;;;5050043;28;20851;-74
2023/03/23 04:29:58;;;;;;;2.83;2.20;;;14.20;63.40;;;;;;5030306;28;20453;-75
2023/03/23 04:32:28;;;;;;;5.00;2.73;;;14.30;63.40;;;;;;5027169;28;21049;-75
2023/03/23 04:34:59;;;;;;;7.53;2.53;;;14.30;63.40;;;;;;5024294;28;20422;-74
2023/03/23 04:37:25;;;;;;;6.50;2.77;;;14.20;63.50;;;;;;5040816;28;20520;-76
2023/03/23 04:39:59;;;;;;;3.87;2.47;;;14.30;63.40;;;;;;5047330;28;20422;-75
2023/03/23 04:42:27;;;;;;;3.67;2.10;;;14.30;63.40;;;;;;5064809;28;20494;-78
2023/03/23 04:44:54;;;;;;;3.40;2.33;;;14.30;63.40;;;;;;5058908;28;20479;-77
2023/03/23 04:47:19;;;;;;;3.27;2.20;;;14.40;62.90;;;;;;5058492;28;20458;-77
2023/03/23 04:49:45;;;;;;;2.77;1.87;;;14.50;62.20;;;;;;5058832;28;20438;-76
2023/03/23 04:52:11;;;;;;;6.23;2.07;;;14.50;61.90;;;;;;5051629;28;20457;-75
2023/03/23 04:54:37;;;;;;;6.87;1.93;;;14.70;61.30;;;;;;5062499;28;20418;-76
2023/03/23 04:57:03;;;;;;;4.83;2.10;;;14.80;61.00;;;;;;5059603;28;20189;-74
2023/03/23 04:59:30;;;;;;;3.03;1.90;;;14.90;60.90;;;;;;5036904;28;20435;-77
2023/03/23 05:01:57;;;;;;;3.43;2.00;;;14.90;60.70;;;;;;5033969;28;20218;-75
2023/03/23 05:04:24;;;;;;;5.67;2.03;;;14.90;60.40;;;;;;5032867;28;21010;-75
2023/03/23 05:06:51;;;;;;;4.30;2.00;;;14.90;60.70;;;;;;5036095;28;20430;-76
2023/03/23 05:09:17;;;;;;;3.93;2.00;;;14.90;60.70;;;;;;5030123;28;20435;-76
2023/03/23 05:11:42;;;;;;;3.20;2.07;;;14.90;60.70;;;;;;5024827;28;20923;-75
2023/03/23 05:14:08;;;;;;;3.80;2.13;;;14.90;60.70;;;;;;5036123;28;20182;-76
2023/03/23 05:16:36;;;;;;;3.43;2.13;;;15.00;60.70;;;;;;5021771;28;20190;-77
2023/03/23 05:19:02;;;;;;;6.23;2.10;;;15.00;60.70;;;;;;5031871;28;20194;-77
2023/03/23 05:21:28;;;;;;;3.47;2.30;;;15.00;60.70;;;;;;5017058;28;20897;-76
2023/03/23 05:23:54;;;;;;;6.17;1.97;;;15.00;60.70;;;;;;5035298;28;20456;-76
2023/03/23 05:26:21;;;;;;;3.00;1.83;;;15.00;60.40;;;;;;5031457;28;20600;-76
2023/03/23 05:28:48;;;;;;;4.80;2.07;;;14.90;60.70;;;;;;5031684;28;20461;-76
2023/03/23 05:31:13;;;;;;;3.30;2.23;;;15.00;60.40;;;;;;5032429;28;20801;-76
2023/03/23 05:33:39;;;;;;;3.57;2.27;;;15.00;60.40;;;;;;5037071;28;20430;-76
2023/03/23 05:36:06;;;;;;;3.50;2.30;;;15.00;60.70;;;;;;5030916;28;20187;-75
2023/03/23 05:38:32;;;;;;;2.83;2.00;;;15.00;60.70;;;;;;5031729;28;20175;-76
2023/03/23 05:41:00;;;;;;;3.30;2.30;;;15.00;60.40;;;;;;5028099;28;20436;-75
2023/03/23 05:43:27;;;;;;;4.63;2.40;;;15.10;60.30;;;;;;5035849;28;20493;-76
2023/03/23 05:45:52;;;;;;;3.27;2.10;;;15.00;60.10;;;;;;5028430;28;20428;-75
2023/03/23 05:48:18;;;;;;;3.10;2.00;;;15.10;60.10;;;;;;5024522;28;20823;-75
2023/03/23 05:50:44;;;;;;;7.37;2.10;;;15.10;60.10;;;;;;5020395;28;20552;-75
2023/03/23 05:53:09;;;;;;;2.93;2.00;;;15.10;60.10;;;;;;5024059;28;20667;-77
2023/03/23 05:55:35;;;;;;;2.60;2.17;;;15.20;60.00;;;;;;5023895;28;20192;-77
2023/03/23 05:58:01;;;;;;;2.63;1.83;;;15.20;60.00;;;;;;5024333;28;20179;-78
2023/03/23 06:00:30;;;;;;;2.80;2.20;;;15.20;59.70;;;;;;5035216;28;20205;-78
2023/03/23 06:03:03;;;;;;;4.87;2.07;;;15.20;59.90;;;;;;5032340;28;20353;-79
2023/03/23 06:12:13;;;;;;;4.10;2.43;;;15.30;59.90;;;;;;5037329;22;20578;-76
2023/03/23 06:14:38;;;;;;;2.50;2.07;;;15.30;60.00;;;;;;5030009;28;20487;-77
2023/03/23 06:17:04;;;;;;;4.07;2.23;;;15.30;59.90;;;;;;5037621;28;20441;-73
2023/03/23 06:19:30;;;;;;;3.37;2.40;;;15.30;59.90;;;;;;5035017;28;20264;-76
2023/03/23 06:21:56;;;;;;;4.10;2.40;;;15.30;60.00;;;;;;5035702;28;20212;-76
2023/03/23 06:24:21;;;;;;;3.07;1.93;;;15.40;59.70;;;;;;5029597;28;20214;-76
2023/03/23 06:26:47;;;;;;;3.43;2.00;;;15.30;59.70;;;;;;5030102;28;20464;-76
2023/03/23 06:29:13;;;;;;;4.43;2.40;;;15.30;60.00;;;;;;5028344;28;20185;-77
2023/03/23 06:31:51;;;;;;;6.70;2.30;;;15.30;59.90;;;;;;5030612;28;20209;-77
2023/03/23 06:34:16;;;;;;;5.33;2.27;;;15.40;59.90;;;;;;5029778;28;20428;-77
2023/03/23 06:36:44;;;;;;;3.13;2.20;;;15.40;59.90;;;;;;5030191;28;20438;-76
2023/03/23 06:39:10;;;;;;;5.40;2.60;;;15.30;59.90;;;;;;5032527;28;20204;-76
2023/03/23 06:41:35;;;;;;;5.23;2.73;;;15.30;60.00;;;;;;5030611;28;20451;-76
2023/03/23 06:44:01;;;;;;;6.33;2.70;;;15.30;59.90;;;;;;5031757;28;20208;-76
2023/03/23 06:46:28;;;;;;;4.80;2.50;;;15.30;60.00;;;;;;5027743;28;20865;-78
2023/03/23 06:48:54;;;;;;;4.67;2.87;;;15.30;60.10;;;;;;5029993;28;20206;-77
2023/03/23 06:51:20;;;;;;;3.40;2.10;;;15.30;60.30;;;;;;5029676;28;20438;-76
2023/03/23 06:53:46;;;;;;;5.43;2.50;;;15.30;60.10;;;;;;5031116;28;20424;-76
2023/03/23 06:56:13;;;;;;;5.60;2.73;;;15.40;60.00;;;;;;5023089;28;20477;-78
2023/03/23 06:58:39;;;;;;;3.67;2.63;;;15.50;59.70;;;;;;5026192;28;20184;-76
2023/03/23 07:01:05;;;;;;;4.07;2.53;;;15.60;59.30;;;;;;5024167;28;20572;-77
2023/03/23 07:03:31;;;;;;;7.00;2.13;;;15.70;59.20;;;;;;5021709;28;20518;-77
2023/03/23 07:05:58;;;;;;;4.27;2.53;;;15.80;58.90;;;;;;5031324;28;20438;-75
2023/03/23 07:08:24;;;;;;;5.60;2.70;;;15.80;59.10;;;;;;5029893;28;20446;-76
2023/03/23 07:10:53;;;;;;;30.60;5.70;;;15.80;59.30;;;;;;5029163;28;20450;-77
2023/03/23 07:13:20;;;;;;;5.63;2.40;;;15.80;59.30;;;;;;5030733;28;20454;-75
2023/03/23 07:15:45;;;;;;;12.30;4.10;;;15.80;59.30;;;;;;5036361;28;20442;-74
2023/03/23 07:18:11;;;;;;;4.43;2.73;;;15.90;59.50;;;;;;5051022;28;20477;-76
2023/03/23 07:20:37;;;;;;;4.27;2.67;;;15.90;59.30;;;;;;5043682;28;21208;-76
2023/03/23 07:23:05;;;;;;;4.80;2.73;;;15.90;59.30;;;;;;5046683;28;20243;-76
2023/03/23 07:25:35;;;;;;;4.33;2.50;;;15.90;59.60;;;;;;5041020;28;20604;-75
2023/03/23 07:28:02;;;;;;;7.57;3.50;;;15.80;59.90;;;;;;5044093;28;20420;-75
2023/03/23 07:30:31;;;;;;;4.07;2.50;;;15.80;59.90;;;;;;5044513;28;20515;-76
2023/03/23 07:32:57;;;;;;;3.30;2.50;;;15.80;59.90;;;;;;5047577;28;20420;-77
2023/03/23 07:35:24;;;;;;;6.30;2.83;;;15.80;59.90;;;;;;5039375;28;20655;-76
2023/03/23 07:37:51;;;;;;;4.93;3.00;;;15.80;59.90;;;;;;5041140;28;20423;-77
2023/03/23 07:40:18;;;;;;;4.20;2.97;;;15.80;60.00;;;;;;5028438;28;20437;-75
2023/03/23 07:42:45;;;;;;;7.70;3.10;;;15.80;60.10;;;;;;5022177;28;20436;-76
2023/03/23 07:45:12;;;;;;;6.07;2.67;;;15.90;60.10;;;;;;5036742;28;20427;-78
2023/03/23 07:47:40;;;;;;;8.50;3.60;;;15.90;60.10;;;;;;5034141;28;20419;-76
2023/03/23 07:50:06;;;;;;;5.80;3.07;;;16.00;60.00;;;;;;5034522;28;20441;-76
2023/03/23 07:52:33;;;;;;;6.23;2.90;;;15.90;59.70;;;;;;5027271;28;20928;-77
2023/03/23 07:55:01;;;;;;;5.07;2.70;;;16.00;59.90;;;;;;5034763;28;20432;-77
2023/03/23 07:57:27;;;;;;;6.17;2.80;;;16.20;59.50;;;;;;5030686;28;20426;-76
2023/03/23 07:59:52;;;;;;;6.73;2.83;;;16.30;59.10;;;;;;5033058;28;20419;-76
2023/03/23 08:02:18;;;;;;;3.77;2.43;;;16.40;58.90;;;;;;5027193;28;21202;-77
2023/03/23 08:04:44;;;;;;;4.73;2.40;;;16.40;59.10;;;;;;5031894;28;20288;-77
2023/03/23 08:07:12;;;;;;;4.00;2.40;;;16.40;58.90;;;;;;5033612;28;20508;-77
2023/03/23 08:09:38;;;;;;;6.40;2.67;;;16.30;59.60;;;;;;5034215;28;20532;-76
2023/03/23 08:12:04;;;;;;;3.17;2.43;;;16.20;60.30;;;;;;5029541;28;20786;-79
2023/03/23 08:14:30;;;;;;;4.30;2.53;;;16.20;60.30;;;;;;5033396;28;20502;-77
2023/03/23 08:16:57;;;;;;;3.90;2.50;;;16.10;61.20;;;;;;5033801;28;20458;-76
2023/03/23 08:19:23;;;;;;;5.03;2.80;;;16.10;61.30;;;;;;5033827;28;20190;-77
2023/03/23 08:21:49;;;;;;;5.23;3.10;;;16.30;61.20;;;;;;5030233;28;20470;-77
2023/03/23 08:24:15;;;;;;;4.10;2.83;;;16.40;60.90;;;;;;5031824;28;20468;-77
2023/03/23 08:26:41;;;;;;;3.00;2.30;;;16.30;61.20;;;;;;5036710;28;20530;-75
2023/03/23 08:29:08;;;;;;;6.93;3.20;;;16.40;61.50;;;;;;5028782;28;20432;-79
2023/03/23 08:31:35;;;;;;;4.10;2.90;;;16.50;61.30;;;;;;5033737;28;20546;-78
2023/03/23 08:34:07;;;;;;;6.30;2.80;;;16.50;61.60;;;;;;5034840;28;20499;-77
2023/03/23 08:36:34;;;;;;;3.67;2.50;;;16.40;62.20;;;;;;5032365;28;20442;-76
2023/03/23 08:39:00;;;;;;;5.43;2.60;;;16.40;62.50;;;;;;5038596;28;20581;-77
2023/03/23 08:41:26;;;;;;;4.70;2.70;;;16.40;62.60;;;;;;5036361;28;20521;-79
2023/03/23 08:43:54;;;;;;;4.10;2.50;;;16.40;62.90;;;;;;5038280;28;20499;-77
2023/03/23 08:46:20;;;;;;;6.93;2.90;;;16.30;63.40;;;;;;5035375;28;20185;-75
2023/03/23 08:48:46;;;;;;;4.57;2.93;;;16.20;63.90;;;;;;5037686;28;20497;-78
2023/03/23 08:51:12;;;;;;;5.90;2.57;;;16.00;64.80;;;;;;5036621;28;20236;-74
2023/03/23 08:53:39;;;;;;;7.07;2.40;;;15.90;65.60;;;;;;5031557;28;20449;-77
2023/03/23 08:56:10;;;;;;;4.73;2.60;;;15.80;65.80;;;;;;5041813;28;20196;-77
2023/03/23 08:58:37;;;;;;;3.10;2.07;;;15.80;66.10;;;;;;5042082;28;20542;-76
2023/03/23 09:01:06;;;;;;;7.33;3.00;;;15.80;66.00;;;;;;5029995;28;20567;-77
2023/03/23 09:03:32;;;;;;;3.93;2.63;;;15.70;66.40;;;;;;5023178;28;20468;-77
2023/03/23 09:06:00;;;;;;;7.70;2.90;;;15.80;66.30;;;;;;5034889;28;20419;-78
2023/03/23 09:08:28;;;;;;;3.13;2.40;;;15.80;66.30;;;;;;5032699;28;20428;-75
2023/03/23 09:11:02;;;;;;;8.00;2.60;;;15.90;66.10;;;;;;5023543;28;20468;-77
2023/03/23 09:13:28;;;;;;;3.53;2.60;;;15.90;66.10;;;;;;5029740;28;20949;-76
2023/03/23 09:15:53;;;;;;;3.10;2.73;;;15.90;66.10;;;;;;5029463;28;20935;-77
2023/03/23 09:18:20;;;;;;;6.00;2.43;;;16.10;65.60;;;;;;5033613;28;20434;-78
2023/03/23 09:20:48;;;;;;;8.53;2.90;;;16.30;65.10;;;;;;5031085;28;20651;-78
2023/03/23 09:23:15;;;;;;;4.90;2.40;;;16.30;64.80;;;;;;5035666;28;20474;-76
2023/03/23 09:25:40;;;;;;;2.90;2.03;;;16.20;64.80;;;;;;5035754;28;20512;-76
2023/03/23 09:28:06;;;;;;;6.90;2.70;;;16.40;64.50;;;;;;5030429;28;20440;-76
2023/03/23 09:30:35;;;;;;;3.40;2.60;;;16.50;64.10;;;;;;5022763;28;20269;-77
2023/03/23 09:33:02;;;;;;;3.00;2.27;;;16.50;63.90;;;;;;5029499;28;20185;-76
2023/03/23 09:35:28;;;;;;;4.93;2.43;;;16.50;64.20;;;;;;5032322;28;20420;-75
2023/03/23 09:37:54;;;;;;;4.33;2.60;;;16.60;63.80;;;;;;5030583;28;20930;-77
2023/03/23 09:40:27;;;;;;;4.10;2.30;;;16.60;63.70;;;;;;5024562;28;20427;-75
2023/03/23 09:43:28;;;;;;;4.77;2.60;;;16.60;63.70;;;;;;5031715;28;20190;-76
2023/03/23 09:46:03;;;;;;;8.30;2.33;;;16.50;63.50;;;;;;5030430;28;20503;-77
2023/03/23 09:48:42;;;;;;;2.73;2.00;;;16.50;63.70;;;;;;5031805;28;20422;-78
2023/03/23 09:51:22;;;;;;;3.13;2.13;;;16.40;63.90;;;;;;5028847;28;20839;-78
2023/03/23 09:53:55;;;;;;;4.13;2.30;;;16.40;63.90;;;;;;5028119;28;20470;-77
2023/03/23 09:56:22;;;;;;;3.40;2.03;;;16.50;63.70;;;;;;5030110;28;20828;-77
2023/03/23 09:58:56;;;;;;;7.07;2.50;;;16.50;63.80;;;;;;5031663;28;20427;-76
2023/03/23 10:01:36;;;;;;;3.00;2.20;;;16.50;64.10;;;;;;5025038;28;20463;-78
2023/03/23 10:04:25;;;;;;;4.33;2.63;;;16.60;64.10;;;;;;5028787;28;20486;-78
2023/03/23 10:06:51;;;;;;;3.03;1.97;;;16.80;63.40;;;;;;5030467;28;20420;-76
2023/03/23 10:09:19;;;;;;;3.60;2.27;;;16.90;63.20;;;;;;5033494;28;20441;-79
2023/03/23 10:12:09;;;;;;;3.40;2.40;;;16.80;63.70;;;;;;5031581;28;20471;-77
2023/03/23 10:14:52;;;;;;;2.90;2.20;;;17.00;63.40;;;;;;5030180;28;20477;-77
2023/03/23 10:17:30;;;;;;;4.83;2.23;;;17.20;62.30;;;;;;5035955;28;20452;-76
2023/03/23 10:20:09;;;;;;;10.13;3.10;;;17.30;62.50;;;;;;5034927;28;20495;-78
2023/03/23 10:22:40;;;;;;;3.17;1.80;;;17.40;61.90;;;;;;5023579;28;20438;-78
2023/03/23 10:25:12;;;;;;;4.83;2.47;;;17.30;62.00;;;;;;5034666;28;20511;-76
2023/03/23 10:28:08;;;;;;;3.53;2.40;;;17.30;61.70;;;;;;5041395;28;20423;-77
2023/03/23 10:30:41;;;;;;;3.43;2.40;;;17.20;62.30;;;;;;5042969;28;20472;-77
2023/03/23 10:33:16;;;;;;;4.50;2.40;;;17.10;62.60;;;;;;5030846;28;20450;-77
2023/03/23 10:35:48;;;;;;;4.27;2.50;;;17.20;62.90;;;;;;5028901;28;20435;-77
2023/03/23 10:38:21;;;;;;;6.23;2.43;;;17.10;62.80;;;;;;5032161;28;20770;-74
2023/03/23 10:40:57;;;;;;;3.20;2.30;;;17.00;63.40;;;;;;5042263;28;20474;-76
2023/03/23 10:43:24;;;;;;;4.00;2.27;;;16.90;63.70;;;;;;5028319;28;20486;-76
2023/03/23 10:45:58;;;;;;;3.40;2.20;;;16.70;64.40;;;;;;5028100;28;20482;-78
2023/03/23 10:48:32;;;;;;;6.97;2.73;;;16.70;64.80;;;;;;5026534;28;20451;-77
2023/03/23 10:51:01;;;;;;;5.80;3.20;;;16.90;64.70;;;;;;5020863;28;20472;-77
2023/03/23 10:53:29;;;;;;;4.30;2.60;;;17.00;63.90;;;;;;5025375;28;20473;-78
2023/03/23 10:55:56;;;;;;;4.40;2.33;;;17.10;63.90;;;;;;5022962;28;20438;-76
2023/03/23 10:58:25;;;;;;;4.77;2.47;;;17.20;63.40;;;;;;5024420;28;20520;-77
2023/03/23 11:00:51;;;;;;;324.13;33.87;;;17.20;63.20;;;;;;5027644;28;20472;-77
2023/03/23 11:03:17;;;;;;;3.87;2.50;;;17.30;63.40;;;;;;5031188;28;20465;-77
2023/03/23 11:05:47;;;;;;;5.20;2.50;;;17.50;62.80;;;;;;5033864;28;20214;-79
2023/03/23 11:08:25;;;;;;;3.60;2.50;;;17.40;63.10;;;;;;5032549;28;20747;-76
2023/03/23 11:11:07;;;;;;;4.03;2.03;;;17.40;62.90;;;;;;5029556;28;20966;-77
2023/03/23 11:13:33;;;;;;;3.30;2.40;;;17.20;63.40;;;;;;5028608;28;20459;-77
2023/03/23 11:16:00;;;;;;;3.10;2.17;;;17.20;63.50;;;;;;5029308;28;20445;-75
2023/03/23 11:18:37;;;;;;;3.20;2.03;;;17.30;63.10;;;;;;5031103;28;20527;-76
2023/03/23 11:21:07;;;;;;;4.80;2.53;;;17.00;63.70;;;;;;5027503;28;20471;-76
2023/03/23 11:23:36;;;;;;;4.00;2.30;;;17.00;63.90;;;;;;5032381;28;20471;-76
2023/03/23 11:26:20;;;;;;;3.23;2.37;;;17.10;63.70;;;;;;5037671;28;20424;-76
2023/03/23 11:29:18;;;;;;;4.47;2.50;;;17.00;64.10;;;;;;5034166;28;20404;-75
2023/03/23 11:31:59;;;;;;;4.47;2.53;;;17.00;64.70;;;;;;5030542;28;20469;-77
2023/03/23 11:34:30;;;;;;;3.97;2.60;;;17.10;65.60;;;;;;5030449;28;21038;-75
2023/03/23 11:37:03;;;;;;;3.30;2.40;;;17.30;64.10;;;;;;5026410;28;20480;-76
2023/03/23 11:39:33;;;;;;;5.33;2.77;;;17.50;63.80;;;;;;5029394;28;20425;-76
2023/03/23 11:42:01;;;;;;;3.50;2.20;;;17.60;63.40;;;;;;5026561;28;20505;-76
2023/03/23 11:44:45;;;;;;;6.07;2.90;;;17.70;62.90;;;;;;5031241;28;20471;-76
2023/03/23 11:47:35;;;;;;;4.23;2.57;;;17.70;63.10;;;;;;5027083;28;20423;-75
2023/03/23 11:50:24;;;;;;;4.77;3.20;;;17.70;63.10;;;;;;5021744;28;20425;-75
2023/03/23 11:52:59;;;;;;;5.97;2.97;;;17.70;63.10;;;;;;5024562;28;20449;-75
2023/03/23 11:55:27;;;;;;;5.40;2.50;;;17.90;62.30;;;;;;5030367;28;20421;-76
2023/03/23 11:57:56;;;;;;;3.80;2.87;;;18.00;62.00;;;;;;5031120;28;20428;-76
2023/03/23 12:00:24;;;;;;;3.30;2.43;;;17.90;61.50;;;;;;5029122;28;20433;-76
2023/03/23 12:03:12;;;;;;;4.83;2.90;;;18.00;61.60;;;;;;5026086;28;20433;-76
2023/03/23 12:05:59;;;;;;;90.87;9.23;;;18.20;60.70;;;;;;5026573;28;21082;-75
2023/03/23 12:08:44;;;;;;;6.10;3.00;;;18.40;59.60;;;;;;5029800;28;20429;-76
2023/03/23 12:11:30;;;;;;;3.97;2.33;;;18.30;58.90;;;;;;5026267;28;20463;-76
2023/03/23 12:14:16;;;;;;;2.80;2.17;;;18.40;59.20;;;;;;5029224;28;20427;-76
2023/03/23 12:17:00;;;;;;;5.33;2.10;;;18.40;57.30;;;;;;5026284;28;20806;-75
2023/03/23 12:19:40;;;;;;;4.90;3.07;;;18.00;58.20;;;;;;5030168;28;20414;-75
2023/03/23 12:22:21;;;;;;;2.33;2.07;;;17.90;58.50;;;;;;5036281;28;21034;-76
2023/03/23 12:25:12;;;;;;;4.73;2.50;;;17.80;58.70;;;;;;5027588;28;20475;-76
2023/03/23 12:27:57;;;;;;;8.50;3.00;;;17.90;58.90;;;;;;5027532;28;20430;-76
2023/03/23 12:30:59;;;;;;;3.80;2.40;;;18.00;58.50;;;;;;5030138;28;20423;-75
2023/03/23 12:33:24;;;;;;;7.37;2.40;;;18.20;58.20;;;;;;5034898;28;20425;-76
2023/03/23 12:36:07;;;;;;;3.07;2.10;;;18.20;57.80;;;;;;5034716;28;20600;-75
2023/03/23 12:39:11;;;;;;;4.40;2.37;;;18.10;57.70;;;;;;5032175;28;20739;-75
2023/03/23 12:41:49;;;;;;;3.90;2.30;;;17.90;58.20;;;;;;5029566;28;20464;-76
2023/03/23 12:44:16;;;;;;;4.40;2.30;;;17.90;58.70;;;;;;5033776;28;20507;-75
2023/03/23 12:46:54;;;;;;;3.80;2.80;;;17.90;58.90;;;;;;5034243;28;20769;-75
2023/03/23 12:49:32;;;;;;;4.00;2.63;;;17.90;58.80;;;;;;5031300;28;20428;-77
2023/03/23 12:52:11;;;;;;;2.93;2.20;;;18.00;58.90;;;;;;5025618;28;20449;-75
2023/03/23 12:54:37;;;;;;;5.00;2.20;;;18.40;58.10;;;;;;5023596;28;20521;-76
2023/03/23 12:57:16;;;;;;;3.23;2.50;;;18.40;57.80;;;;;;5030232;28;20938;-76
2023/03/23 13:00:10;;;;;;;5.30;2.67;;;18.40;58.10;;;;;;5032284;28;20205;-75
2023/03/23 13:02:50;;;;;;;3.70;2.67;;;18.10;58.20;;;;;;5027783;28;20473;-76
2023/03/23 13:05:22;;;;;;;3.73;2.57;;;18.00;58.80;;;;;;5032080;28;20426;-75
2023/03/23 13:07:53;;;;;;;4.50;2.50;;;18.00;59.20;;;;;;5051263;28;20476;-75
2023/03/23 13:10:30;;;;;;;9.07;4.17;;;17.90;59.70;;;;;;5034261;28;20504;-76